createdAt,value
2022-10-26T00:01:19.289Z,100056.00
2022-10-26T00:03:48.838Z,100059.53
2022-10-26T00:06:32.199Z,100062.13
2022-10-26T00:09:05.053Z,100053.44
2022-10-26T00:11:38.638Z,100057.19
2022-10-26T00:14:08.251Z,100053.13
2022-10-26T00:16:38.400Z,100049.00
2022-10-26T00:19:07.985Z,100046.94
2022-10-26T00:21:38.500Z,100039.63
2022-10-26T00:27:42.164Z,100039.69
2022-10-26T00:30:11.693Z,100024.16
2022-10-26T00:35:21.479Z,100019.72
2022-10-26T00:38:03.772Z,100023.72
2022-10-26T00:40:34.835Z,100014.91
2022-10-26T00:43:20.201Z,100023.25
2022-10-26T00:45:55.493Z,100013.34
2022-10-26T00:48:39.842Z,100020.63
2022-10-26T00:51:16.054Z,100019.50
2022-10-26T00:53:47.944Z,100024.16
2022-10-26T00:56:22.082Z,100023.09
2022-10-26T00:58:51.885Z,100018.59
2022-10-26T01:01:22.372Z,100014.53
2022-10-26T01:04:00.279Z,100009.75
2022-10-26T01:06:32.174Z,100002.47
2022-10-26T01:09:04.614Z,100005.44
2022-10-26T01:11:35.397Z,100001.69
2022-10-26T01:14:08.516Z,99993.84
2022-10-26T01:20:16.385Z,100004.09
2022-10-26T01:23:00.703Z,100004.25
2022-10-26T01:25:34.019Z,99995.16
2022-10-26T01:28:07.614Z,100002.53
2022-10-26T01:30:45.817Z,100000.13
2022-10-26T01:33:24.697Z,100001.34
2022-10-26T01:36:14.569Z,100001.03
2022-10-26T01:38:52.349Z,99995.25
2022-10-26T01:41:38.165Z,99998.34
2022-10-26T01:44:16.450Z,99992.44
2022-10-26T01:48:01.972Z,99996.03
2022-10-26T01:50:33.220Z,100004.00
2022-10-26T01:53:03.768Z,100000.47
2022-10-26T01:55:47.854Z,99996.63
2022-10-26T01:58:31.767Z,100001.03
2022-10-26T02:01:08.230Z,99999.19
2022-10-26T02:03:55.348Z,99996.41
2022-10-26T02:06:47.488Z,100006.94
2022-10-26T02:09:20.405Z,100011.69
2022-10-26T02:11:52.142Z,100022.63
2022-10-26T02:14:38.902Z,100021.50
2022-10-26T02:17:08.310Z,100008.75
2022-10-26T02:19:42.980Z,100011.75
2022-10-26T02:22:20.404Z,100006.97
2022-10-26T02:24:53.992Z,100012.00
2022-10-26T02:27:29.093Z,100020.06
2022-10-26T02:30:02.044Z,100013.88
2022-10-26T02:32:33.173Z,100007.59
2022-10-26T02:35:07.546Z,100003.25
2022-10-26T02:37:39.778Z,99997.22
2022-10-26T02:40:13.973Z,99990.09
2022-10-26T02:42:44.375Z,99984.41
2022-10-26T02:45:19.062Z,99974.94
2022-10-26T02:47:50.193Z,99973.84
2022-10-26T02:50:24.494Z,99970.72
2022-10-26T02:53:12.141Z,99965.78
2022-10-26T02:55:48.179Z,99951.81
2022-10-26T02:58:21.332Z,99953.56
2022-10-26T03:00:52.425Z,99958.81
2022-10-26T03:03:22.008Z,99953.53
2022-10-26T03:05:54.016Z,99948.56
2022-10-26T03:08:23.264Z,99955.97
2022-10-26T03:10:52.855Z,99958.34
2022-10-26T03:13:23.834Z,99960.41
2022-10-26T03:15:52.000Z,99965.44
2022-10-26T03:18:21.864Z,99964.94
2022-10-26T03:21:03.522Z,99974.09
2022-10-26T03:23:40.696Z,99972.13
2022-10-26T03:26:12.185Z,99969.75
2022-10-26T03:28:42.791Z,99977.91
2022-10-26T03:31:12.578Z,99965.47
2022-10-26T03:33:42.215Z,99964.34
2022-10-26T03:36:11.845Z,99960.94
2022-10-26T03:38:39.980Z,99963.44
2022-10-26T03:41:10.420Z,99959.38
2022-10-26T03:43:39.279Z,99968.34
2022-10-26T03:46:09.864Z,99972.66
2022-10-26T03:48:40.338Z,99969.91
2022-10-26T03:51:11.685Z,99970.31
2022-10-26T03:53:40.246Z,99958.78
2022-10-26T03:56:10.039Z,99957.41
2022-10-26T03:58:39.361Z,99964.06
2022-10-26T04:01:08.146Z,99958.50
2022-10-26T04:03:38.671Z,99953.00
2022-10-26T04:06:10.060Z,99947.03
2022-10-26T04:08:38.873Z,99942.28
2022-10-26T04:11:07.803Z,99953.78
2022-10-26T04:13:39.591Z,99951.38
2022-10-26T04:16:11.941Z,99943.91
2022-10-26T04:18:43.629Z,99937.63
2022-10-26T04:21:15.998Z,99939.28
2022-10-26T04:23:47.521Z,99941.00
2022-10-26T04:26:15.890Z,99936.00
2022-10-26T04:28:44.001Z,99931.78
2022-10-26T04:31:16.618Z,99939.00
2022-10-26T04:33:47.292Z,99932.59
2022-10-26T04:36:16.409Z,99941.03
2022-10-26T04:38:51.636Z,99932.81
2022-10-26T04:41:20.788Z,99927.06
2022-10-26T04:43:54.456Z,99920.03
2022-10-26T04:46:24.077Z,99923.97
2022-10-26T04:48:54.146Z,99920.84
2022-10-26T04:51:26.203Z,99924.69
2022-10-26T04:54:03.120Z,99916.34
2022-10-26T04:56:32.783Z,99912.56
2022-10-26T04:59:05.028Z,99901.09
2022-10-26T05:01:43.235Z,99891.66
2022-10-26T05:04:38.730Z,99888.25
2022-10-26T05:07:08.459Z,99885.84
2022-10-26T05:09:39.415Z,99884.66
2022-10-26T05:12:08.857Z,99874.81
2022-10-26T05:14:41.636Z,99877.69
2022-10-26T05:17:11.432Z,99881.16
2022-10-26T05:19:40.284Z,99877.84
2022-10-26T05:22:10.092Z,99871.00
2022-10-26T05:24:38.619Z,99868.16
2022-10-26T05:27:08.269Z,99865.03
2022-10-26T05:29:38.411Z,99858.16
2022-10-26T05:32:11.497Z,99848.91
2022-10-26T05:34:44.225Z,99848.91
2022-10-26T05:37:14.131Z,99842.34
2022-10-26T05:39:44.453Z,99847.84
2022-10-26T05:42:18.728Z,99850.25
2022-10-26T05:44:48.043Z,99850.13
2022-10-26T05:47:18.357Z,99844.88
2022-10-26T05:49:47.755Z,99843.81
2022-10-26T05:52:18.758Z,99839.84
2022-10-26T05:54:48.408Z,99837.91
2022-10-26T05:57:24.545Z,99832.44
2022-10-26T06:00:02.273Z,99834.69
2022-10-26T06:02:50.572Z,99831.97
2022-10-26T06:05:23.893Z,99831.66
2022-10-26T06:07:54.211Z,99824.94
2022-10-26T06:10:23.691Z,99816.91
2022-10-26T06:12:56.951Z,99814.56
2022-10-26T06:15:30.943Z,99810.69
2022-10-26T06:18:06.171Z,99821.00
2022-10-26T06:20:35.525Z,99817.63
2022-10-26T06:23:31.763Z,99828.56
2022-10-26T06:26:07.716Z,99831.75
2022-10-26T06:28:48.697Z,99831.41
2022-10-26T06:31:20.330Z,99816.56
2022-10-26T06:33:52.023Z,99812.91
2022-10-26T06:36:31.199Z,99812.28
2022-10-26T06:39:05.826Z,99798.81
2022-10-26T06:41:38.563Z,99808.03
2022-10-26T06:44:14.214Z,99806.41
2022-10-26T06:46:47.770Z,99802.13
2022-10-26T06:49:20.412Z,99793.66
2022-10-26T06:51:53.525Z,99792.53
2022-10-26T06:54:43.640Z,99784.38
2022-10-26T06:57:19.167Z,99776.72
2022-10-26T07:00:03.513Z,99776.34
2022-10-26T07:02:32.706Z,99774.75
2022-10-26T07:05:03.352Z,99769.81
2022-10-26T07:07:34.811Z,99764.41
2022-10-26T07:10:10.323Z,99765.78
2022-10-26T07:12:39.969Z,99759.84
2022-10-26T07:15:12.939Z,99753.09
2022-10-26T07:17:46.486Z,99748.00
2022-10-26T07:20:16.258Z,99744.34
2022-10-26T07:23:04.019Z,99740.59
2022-10-26T07:25:32.621Z,99740.16
2022-10-26T07:28:06.423Z,99729.63
2022-10-26T07:30:53.909Z,99730.84
2022-10-26T07:33:34.947Z,99720.50
2022-10-26T07:36:11.902Z,99723.69
2022-10-26T07:38:46.564Z,99727.69
2022-10-26T07:41:16.154Z,99727.94
2022-10-26T07:43:47.645Z,99723.47
2022-10-26T07:46:19.642Z,99721.41
2022-10-26T07:48:48.551Z,99710.81
2022-10-26T07:51:18.334Z,99697.09
2022-10-26T07:53:48.563Z,99692.19
2022-10-26T07:56:21.057Z,99682.78
2022-10-26T07:58:53.290Z,99672.00
2022-10-26T08:01:28.831Z,99668.69
2022-10-26T08:04:00.423Z,99669.72
2022-10-26T08:06:31.900Z,99660.00
2022-10-26T08:09:06.108Z,99643.63
2022-10-26T08:11:38.150Z,99652.09
2022-10-26T08:14:06.657Z,99658.34
2022-10-26T08:16:54.310Z,99650.34
2022-10-26T08:19:23.397Z,99649.69
2022-10-26T08:21:51.827Z,99643.50
2022-10-26T08:24:21.048Z,99647.03
2022-10-26T08:26:50.668Z,99649.38
2022-10-26T08:29:20.844Z,99653.31
2022-10-26T08:31:52.661Z,99649.16
2022-10-26T08:34:24.981Z,99652.84
2022-10-26T08:37:02.911Z,99643.25
2022-10-26T08:39:31.811Z,99644.00
2022-10-26T08:42:31.250Z,99648.47
2022-10-26T08:45:06.701Z,99656.44
2022-10-26T08:47:49.135Z,99655.31
2022-10-26T08:50:26.150Z,99659.75
2022-10-26T08:53:06.896Z,99655.47
2022-10-26T08:55:48.490Z,99655.91
2022-10-26T08:58:22.229Z,99663.59
2022-10-26T09:00:54.652Z,99660.44
2022-10-26T09:03:25.998Z,99669.00
2022-10-26T09:06:10.091Z,99675.34
2022-10-26T09:08:42.571Z,99669.75
2022-10-26T09:11:22.847Z,99670.81
2022-10-26T09:14:12.461Z,99676.41
2022-10-26T09:16:51.889Z,99665.25
2022-10-26T09:19:32.735Z,99673.63
2022-10-26T09:22:03.130Z,99671.97
2022-10-26T09:24:32.843Z,99673.41
2022-10-26T09:27:16.860Z,99667.59
2022-10-26T09:29:48.313Z,99669.44
2022-10-26T09:32:28.411Z,99672.38
2022-10-26T09:35:04.120Z,99672.53
2022-10-26T09:37:40.554Z,99678.28
2022-10-26T09:40:15.548Z,99676.50
2022-10-26T09:42:54.662Z,99687.94
2022-10-26T09:45:32.125Z,99696.59
2022-10-26T09:48:16.720Z,99701.81
2022-10-26T09:50:53.250Z,99698.13
2022-10-26T09:53:25.625Z,99690.16
2022-10-26T09:56:09.097Z,99696.25
2022-10-26T09:58:42.750Z,99688.94
2022-10-26T10:01:45.049Z,99684.63
2022-10-26T10:04:21.565Z,99679.94
2022-10-26T10:07:39.848Z,99680.28
2022-10-26T10:10:24.726Z,99668.50
2022-10-26T10:12:59.636Z,99673.81
2022-10-26T10:15:32.505Z,99676.03
2022-10-26T10:18:03.371Z,99684.53
2022-10-26T10:20:35.019Z,99685.22
2022-10-26T10:23:06.269Z,99696.59
2022-10-26T10:25:36.700Z,99696.56
2022-10-26T10:28:23.915Z,99693.16
2022-10-26T10:31:09.612Z,99695.38
2022-10-26T10:33:42.481Z,99693.72
2022-10-26T10:36:20.393Z,99690.63
2022-10-26T10:38:56.388Z,99678.75
2022-10-26T10:41:46.293Z,99657.41
2022-10-26T10:44:15.791Z,99661.84
2022-10-26T10:46:45.032Z,99648.47
2022-10-26T10:49:34.434Z,99643.25
2022-10-26T10:52:12.569Z,99640.94
2022-10-26T10:54:43.473Z,99639.41
2022-10-26T10:57:37.040Z,99628.03
2022-10-26T11:00:13.083Z,99642.16
2022-10-26T11:02:43.360Z,99640.78
2022-10-26T11:05:27.306Z,99637.03
2022-10-26T11:08:04.296Z,99637.78
2022-10-26T11:10:53.265Z,99641.69
2022-10-26T11:13:59.268Z,99632.97
2022-10-26T11:16:30.588Z,99622.72
2022-10-26T11:19:04.061Z,99616.44
2022-10-26T11:21:39.727Z,99596.94
2022-10-26T11:24:20.360Z,99602.03
2022-10-26T11:26:57.652Z,99611.91
2022-10-26T11:29:41.675Z,99619.56
2022-10-26T11:32:16.902Z,99628.91
2022-10-26T11:34:56.354Z,99630.75
2022-10-26T11:37:56.821Z,99620.72
2022-10-26T11:40:55.267Z,99613.13
2022-10-26T11:43:34.567Z,99622.06
2022-10-26T11:46:19.110Z,99621.47
2022-10-26T11:48:52.597Z,99628.56
2022-10-26T11:51:35.991Z,99629.44
2022-10-26T11:54:24.809Z,99612.22
2022-10-26T11:57:00.347Z,99602.41
2022-10-26T11:59:40.332Z,99610.97
2022-10-26T12:02:27.114Z,99615.25
2022-10-26T12:05:10.717Z,99615.03
2022-10-26T12:07:42.296Z,99608.03
2022-10-26T12:10:23.875Z,99616.06
2022-10-26T12:13:09.207Z,99615.03
2022-10-26T12:16:05.660Z,99623.03
2022-10-26T12:18:56.439Z,99624.56
2022-10-26T12:21:32.066Z,99629.13
2022-10-26T12:24:30.347Z,99635.34
2022-10-26T12:27:03.589Z,99635.44
2022-10-26T12:30:42.345Z,99639.59
2022-10-26T12:33:48.662Z,99638.91
2022-10-26T12:36:41.101Z,99640.34
2022-10-26T12:39:44.704Z,99639.63
2022-10-26T12:42:18.215Z,99645.06
2022-10-26T12:45:03.472Z,99625.72
2022-10-26T12:48:27.727Z,99632.44
2022-10-26T12:51:35.139Z,99627.69
2022-10-26T12:54:18.870Z,99632.03
2022-10-26T12:57:01.637Z,99639.41
2022-10-26T12:59:36.012Z,99640.34
2022-10-26T13:02:24.867Z,99657.31
2022-10-26T13:04:56.449Z,99650.94
2022-10-26T13:07:37.340Z,99644.59
2022-10-26T13:10:12.795Z,99639.09
2022-10-26T13:12:56.153Z,99633.97
2022-10-26T13:15:32.674Z,99627.34
2022-10-26T13:18:11.114Z,99613.19
2022-10-26T13:21:02.835Z,99621.16
2022-10-26T13:23:35.012Z,99628.16
2022-10-26T13:26:13.565Z,99629.34
2022-10-26T13:28:43.044Z,99622.50
2022-10-26T13:31:17.038Z,99627.09
2022-10-26T13:33:48.261Z,99622.13
2022-10-26T13:36:41.569Z,99627.00
2022-10-26T13:39:15.130Z,99611.66
2022-10-26T13:41:48.958Z,99616.03
2022-10-26T13:44:40.897Z,99615.44
2022-10-26T13:47:14.685Z,99616.03
2022-10-26T13:49:49.452Z,99601.66
2022-10-26T13:52:26.549Z,99602.47
2022-10-26T13:55:07.713Z,99616.13
2022-10-26T13:58:08.430Z,99605.19
2022-10-26T14:00:40.483Z,99597.47
2022-10-26T14:03:23.928Z,99602.53
2022-10-26T14:05:59.969Z,99607.22
2022-10-26T14:08:35.052Z,99591.63
2022-10-26T14:11:06.629Z,99584.81
2022-10-26T14:13:40.314Z,99581.69
2022-10-26T14:16:32.369Z,99573.19
2022-10-26T14:19:46.464Z,99583.78
2022-10-26T14:22:23.214Z,99578.22
2022-10-26T14:25:04.246Z,99591.75
2022-10-26T14:27:48.137Z,99599.78
2022-10-26T14:30:36.097Z,99594.00
2022-10-26T14:33:19.026Z,99597.56
2022-10-26T14:35:51.746Z,99603.00
2022-10-26T14:38:46.570Z,99595.19
2022-10-26T14:41:18.879Z,99589.50
2022-10-26T14:43:52.315Z,99590.38
2022-10-26T14:46:32.765Z,99586.25
2022-10-26T14:49:04.941Z,99582.56
2022-10-26T14:51:57.415Z,99566.41
2022-10-26T14:54:40.261Z,99571.44
2022-10-26T14:57:47.149Z,99571.19
2022-10-26T15:00:23.789Z,99583.50
2022-10-26T15:03:05.048Z,99583.84
2022-10-26T15:05:36.987Z,99577.25
2022-10-26T15:08:45.170Z,99557.53
2022-10-26T15:11:24.132Z,99556.00
2022-10-26T15:14:00.300Z,99560.00
2022-10-26T15:16:33.250Z,99568.16
2022-10-26T15:19:11.791Z,99559.06
2022-10-26T15:21:48.666Z,99572.06
2022-10-26T15:24:35.916Z,99569.81
2022-10-26T15:27:25.971Z,99571.34
2022-10-26T15:30:50.693Z,99555.91
2022-10-26T15:33:25.202Z,99551.44
2022-10-26T15:36:09.701Z,99566.47
2022-10-26T15:38:45.727Z,99570.09
2022-10-26T15:41:31.625Z,99560.44
2022-10-26T15:44:24.498Z,99554.31
2022-10-26T15:47:21.036Z,99561.88
2022-10-26T15:50:00.479Z,99553.19
2022-10-26T15:52:36.637Z,99550.50
2022-10-26T15:55:11.335Z,99558.28
2022-10-26T15:57:49.664Z,99548.81
2022-10-26T16:00:29.111Z,99550.41
2022-10-26T16:03:07.438Z,99549.59
2022-10-26T16:05:41.469Z,99551.38
2022-10-26T16:08:18.171Z,99545.47
2022-10-26T16:10:53.159Z,99537.94
2022-10-26T16:13:40.161Z,99535.06
2022-10-26T16:16:15.315Z,99540.19
2022-10-26T16:18:46.752Z,99552.06
2022-10-26T16:21:16.653Z,99543.50
2022-10-26T16:23:48.773Z,99541.25
2022-10-26T16:26:28.532Z,99534.88
2022-10-26T16:29:04.029Z,99520.25
2022-10-26T16:31:39.783Z,99531.28
2022-10-26T16:34:16.179Z,99526.13
2022-10-26T16:36:49.784Z,99511.38
2022-10-26T16:39:18.604Z,99500.28
2022-10-26T16:41:50.628Z,99491.88
2022-10-26T16:44:20.377Z,99491.53
2022-10-26T16:46:55.266Z,99484.97
2022-10-26T16:49:32.867Z,99483.38
2022-10-26T16:52:07.653Z,99466.00
2022-10-26T16:54:41.375Z,99461.50
2022-10-26T16:57:53.260Z,99440.97
2022-10-26T17:00:35.523Z,99431.44
2022-10-26T17:03:12.949Z,99431.94
2022-10-26T17:05:48.640Z,99435.16
2022-10-26T17:09:07.484Z,99427.28
2022-10-26T17:11:51.381Z,99430.66
2022-10-26T17:14:36.894Z,99419.03
2022-10-26T17:17:11.904Z,99419.88
2022-10-26T17:24:39.761Z,99406.88
2022-10-26T17:27:12.763Z,99407.22
2022-10-26T17:30:50.837Z,99413.50
2022-10-26T17:33:22.665Z,99405.94
2022-10-26T17:36:10.419Z,99398.81
2022-10-26T17:39:37.746Z,99393.81
2022-10-26T17:42:35.837Z,99387.84
2022-10-26T17:45:05.603Z,99383.16
2022-10-26T17:47:35.806Z,99384.94
2022-10-26T17:50:08.115Z,99377.66
2022-10-26T17:52:42.908Z,99374.75
2022-10-26T18:00:52.086Z,99363.59
2022-10-26T18:03:35.336Z,99363.28
2022-10-26T18:06:11.988Z,99353.59
2022-10-26T18:09:13.325Z,99354.91
2022-10-26T18:11:49.565Z,99348.09
2022-10-26T18:14:32.090Z,99347.31
2022-10-26T18:17:16.312Z,99345.84
2022-10-26T18:20:09.352Z,99342.00
2022-10-26T18:22:59.699Z,99343.28
2022-10-26T18:26:13.273Z,99338.91
2022-10-26T18:28:46.868Z,99347.47
2022-10-26T18:31:20.300Z,99338.41
2022-10-26T18:33:58.967Z,99340.84
2022-10-26T18:36:35.610Z,99341.78
2022-10-26T18:39:08.419Z,99336.75
2022-10-26T18:41:43.012Z,99339.06
2022-10-26T18:44:12.900Z,99332.94
2022-10-26T18:46:44.256Z,99330.97
2022-10-26T18:49:15.192Z,99332.44
2022-10-26T18:51:44.421Z,99343.59
2022-10-26T18:54:13.499Z,99332.13
2022-10-26T18:56:46.936Z,99335.69
2022-10-26T18:59:16.216Z,99329.53
2022-10-26T19:01:52.063Z,99330.34
2022-10-26T19:04:46.366Z,99333.91
2022-10-26T19:07:17.498Z,99326.50
2022-10-26T19:09:54.689Z,99332.44
2022-10-26T19:12:56.245Z,99328.44
2022-10-26T19:15:46.952Z,99327.91
2022-10-26T19:18:37.183Z,99327.72
2022-10-26T19:21:28.816Z,99323.66
2022-10-26T19:24:03.426Z,99316.88
2022-10-26T19:26:41.114Z,99304.50
2022-10-26T19:29:20.828Z,99303.63
2022-10-26T19:31:57.753Z,99293.53
2022-10-26T19:34:31.075Z,99291.91
2022-10-26T19:37:04.267Z,99297.84
2022-10-26T19:39:36.441Z,99284.06
2022-10-26T19:42:08.287Z,99287.53
2022-10-26T19:44:37.392Z,99290.28
2022-10-26T19:47:07.061Z,99285.41
2022-10-26T19:49:38.613Z,99295.56
2022-10-26T19:52:07.911Z,99293.00
2022-10-26T19:54:36.645Z,99291.41
2022-10-26T19:57:05.784Z,99289.81
2022-10-26T19:59:36.095Z,99286.19
2022-10-26T20:02:04.971Z,99292.81
2022-10-26T20:04:34.504Z,99298.28
2022-10-26T20:07:03.082Z,99298.66
2022-10-26T20:09:32.982Z,99300.28
2022-10-26T20:12:03.142Z,99304.34
2022-10-26T20:14:32.164Z,99316.63
2022-10-26T20:17:00.367Z,99324.19
2022-10-26T20:19:30.989Z,99316.78
2022-10-26T20:22:00.355Z,99324.38
2022-10-26T20:24:41.065Z,99322.16
2022-10-26T20:27:11.655Z,99316.97
2022-10-26T20:29:43.467Z,99319.81
2022-10-26T20:32:16.267Z,99324.63
2022-10-26T20:34:46.657Z,99315.53
2022-10-26T20:37:20.348Z,99316.00
2022-10-26T20:39:54.160Z,99304.84
2022-10-26T20:42:27.507Z,99303.19
2022-10-26T20:45:12.142Z,99301.53
2022-10-26T20:47:41.200Z,99308.19
2022-10-26T20:50:14.691Z,99322.19
2022-10-26T20:52:52.913Z,99331.00
2022-10-26T20:55:44.101Z,99324.78
2022-10-26T20:58:22.975Z,99323.06
2022-10-26T21:01:05.196Z,99333.59
2022-10-26T21:03:35.886Z,99325.66
2022-10-26T21:06:05.488Z,99322.38
2022-10-26T21:08:48.805Z,99330.56
2022-10-26T21:11:19.777Z,99324.19
2022-10-26T21:13:49.921Z,99338.53
2022-10-26T21:18:52.561Z,99332.97
2022-10-26T21:21:22.793Z,99334.63
2022-10-26T21:23:52.183Z,99343.84
2022-10-26T21:26:21.277Z,99342.88
2022-10-26T21:29:04.910Z,99345.22
2022-10-26T21:31:43.511Z,99344.63
2022-10-26T21:34:12.564Z,99350.31
2022-10-26T21:36:45.136Z,99358.94
2022-10-26T21:39:24.218Z,99363.31
2022-10-26T21:42:20.832Z,99352.31
2022-10-26T21:44:54.861Z,99371.88
2022-10-26T21:47:24.102Z,99373.03
2022-10-26T21:49:53.145Z,99376.69
2022-10-26T21:52:23.129Z,99373.34
2022-10-26T21:54:52.346Z,99379.72
2022-10-26T21:57:31.130Z,99379.94
2022-10-26T22:00:01.070Z,99382.47
2022-10-26T22:02:53.135Z,99396.75
2022-10-26T22:05:24.823Z,99400.28
2022-10-26T22:07:59.440Z,99408.31
2022-10-26T22:10:49.438Z,99407.50
2022-10-26T22:13:27.663Z,99417.03
2022-10-26T22:16:07.134Z,99413.03
2022-10-26T22:18:37.177Z,99423.03
2022-10-26T22:21:06.935Z,99425.81
2022-10-26T22:23:38.682Z,99429.50
2022-10-26T22:26:13.162Z,99434.34
2022-10-26T22:28:45.438Z,99442.56
2022-10-26T22:31:18.667Z,99449.34
2022-10-26T22:33:56.591Z,99445.16
2022-10-26T22:36:32.062Z,99442.75
2022-10-26T22:39:01.394Z,99446.59
2022-10-26T22:41:36.313Z,99454.84
2022-10-26T22:44:12.979Z,99458.00
2022-10-26T22:46:44.378Z,99457.25
2022-10-26T22:49:17.171Z,99471.13
2022-10-26T22:52:33.241Z,99474.66
2022-10-26T22:55:29.820Z,99476.78
2022-10-26T23:00:54.889Z,99496.06
2022-10-26T23:03:41.466Z,99502.03
2022-10-26T23:06:16.959Z,99505.91
2022-10-26T23:08:51.077Z,99513.09
2022-10-26T23:11:22.816Z,99514.72
2022-10-26T23:14:01.326Z,99522.88
2022-10-26T23:16:32.409Z,99518.63
2022-10-26T23:19:03.717Z,99521.38
2022-10-26T23:21:33.738Z,99524.31
2022-10-26T23:24:04.531Z,99529.78
2022-10-26T23:26:36.953Z,99531.66
2022-10-26T23:29:07.172Z,99543.72
2022-10-26T23:31:37.464Z,99555.69
2022-10-26T23:34:11.011Z,99554.69
2022-10-26T23:36:41.749Z,99554.03
2022-10-26T23:39:11.021Z,99566.19
2022-10-26T23:41:41.427Z,99566.31
2022-10-26T23:44:15.859Z,99566.25
2022-10-26T23:46:45.000Z,99572.97
2022-10-26T23:49:14.897Z,99580.53
2022-10-26T23:51:45.212Z,99585.25
2022-10-26T23:54:16.224Z,99591.31
2022-10-26T23:56:45.004Z,99595.84
2022-10-26T23:59:15.608Z,99592.69
